sensor_id;sensor_type;location;lat;lon;timestamp;P1;durP1;ratioP1;P2;durP2;ratioP2
8580;SDS011;4328;48.622;9.230;2022-08-21T00:02:21;2.93;;;1.67;;
8580;SDS011;4328;48.622;9.230;2022-08-21T00:04:49;2.63;;;1.70;;
8580;SDS011;4328;48.622;9.230;2022-08-21T00:07:17;2.63;;;1.60;;
8580;SDS011;4328;48.622;9.230;2022-08-21T00:09:46;3.17;;;1.70;;
8580;SDS011;4328;48.622;9.230;2022-08-21T00:12:13;1.70;;;1.60;;
8580;SDS011;4328;48.622;9.230;2022-08-21T00:14:40;2.53;;;1.80;;
8580;SDS011;4328;48.622;9.230;2022-08-21T00:17:07;3.27;;;1.67;;
8580;SDS011;4328;48.622;9.230;2022-08-21T00:19:34;4.23;;;1.63;;
8580;SDS011;4328;48.622;9.230;2022-08-21T00:22:00;1.90;;;1.80;;
8580;SDS011;4328;48.622;9.230;2022-08-21T00:24:27;2.73;;;1.80;;
8580;SDS011;4328;48.622;9.230;2022-08-21T00:26:55;2.60;;;1.70;;
8580;SDS011;4328;48.622;9.230;2022-08-21T00:29:22;1.97;;;1.67;;
8580;SDS011;4328;48.622;9.230;2022-08-21T00:31:49;2.07;;;1.90;;
8580;SDS011;4328;48.622;9.230;2022-08-21T00:34:15;2.77;;;1.87;;
8580;SDS011;4328;48.622;9.230;2022-08-21T00:36:42;2.80;;;1.70;;
8580;SDS011;4328;48.622;9.230;2022-08-21T00:39:09;1.93;;;1.80;;
8580;SDS011;4328;48.622;9.230;2022-08-21T00:41:36;3.53;;;1.97;;
8580;SDS011;4328;48.622;9.230;2022-08-21T00:44:05;5.03;;;2.03;;
8580;SDS011;4328;48.622;9.230;2022-08-21T00:46:33;1.70;;;1.60;;
8580;SDS011;4328;48.622;9.230;2022-08-21T00:49:00;2.97;;;1.70;;
8580;SDS011;4328;48.622;9.230;2022-08-21T00:51:28;2.97;;;2.23;;
8580;SDS011;4328;48.622;9.230;2022-08-21T00:54:01;1.90;;;1.80;;
8580;SDS011;4328;48.622;9.230;2022-08-21T00:56:29;4.63;;;1.80;;
8580;SDS011;4328;48.622;9.230;2022-08-21T00:58:56;2.10;;;1.90;;
8580;SDS011;4328;48.622;9.230;2022-08-21T01:01:26;3.40;;;1.93;;
8580;SDS011;4328;48.622;9.230;2022-08-21T01:03:53;1.80;;;1.70;;
8580;SDS011;4328;48.622;9.230;2022-08-21T01:06:20;1.97;;;1.70;;
8580;SDS011;4328;48.622;9.230;2022-08-21T01:08:46;2.90;;;1.83;;
8580;SDS011;4328;48.622;9.230;2022-08-21T01:11:14;1.90;;;1.80;;
8580;SDS011;4328;48.622;9.230;2022-08-21T01:13:41;2.53;;;1.90;;
8580;SDS011;4328;48.622;9.230;2022-08-21T01:16:12;2.43;;;1.77;;
8580;SDS011;4328;48.622;9.230;2022-08-21T01:18:43;2.23;;;2.07;;
8580;SDS011;4328;48.622;9.230;2022-08-21T01:21:12;1.90;;;1.77;;
8580;SDS011;4328;48.622;9.230;2022-08-21T01:23:42;3.17;;;1.90;;
8580;SDS011;4328;48.622;9.230;2022-08-21T01:26:10;2.20;;;1.90;;
8580;SDS011;4328;48.622;9.230;2022-08-21T01:28:38;2.90;;;2.10;;
8580;SDS011;4328;48.622;9.230;2022-08-21T01:31:10;2.30;;;2.10;;
8580;SDS011;4328;48.622;9.230;2022-08-21T01:33:40;2.83;;;1.73;;
8580;SDS011;4328;48.622;9.230;2022-08-21T01:36:07;1.90;;;1.73;;
8580;SDS011;4328;48.622;9.230;2022-08-21T01:38:35;3.93;;;1.80;;
8580;SDS011;4328;48.622;9.230;2022-08-21T01:41:02;2.93;;;1.80;;
8580;SDS011;4328;48.622;9.230;2022-08-21T01:43:29;2.97;;;2.10;;
8580;SDS011;4328;48.622;9.230;2022-08-21T01:45:55;2.37;;;1.87;;
8580;SDS011;4328;48.622;9.230;2022-08-21T01:48:22;2.30;;;1.83;;
8580;SDS011;4328;48.622;9.230;2022-08-21T01:50:49;2.73;;;1.83;;
8580;SDS011;4328;48.622;9.230;2022-08-21T01:53:16;2.00;;;1.90;;
8580;SDS011;4328;48.622;9.230;2022-08-21T01:55:44;2.87;;;2.10;;
8580;SDS011;4328;48.622;9.230;2022-08-21T01:58:11;3.13;;;2.00;;
8580;SDS011;4328;48.622;9.230;2022-08-21T02:00:37;2.70;;;1.87;;
8580;SDS011;4328;48.622;9.230;2022-08-21T02:03:04;6.50;;;2.27;;
8580;SDS011;4328;48.622;9.230;2022-08-21T02:05:31;3.60;;;1.77;;
8580;SDS011;4328;48.622;9.230;2022-08-21T02:07:58;2.03;;;1.90;;
8580;SDS011;4328;48.622;9.230;2022-08-21T02:10:29;5.17;;;2.60;;
8580;SDS011;4328;48.622;9.230;2022-08-21T02:12:59;2.73;;;1.80;;
8580;SDS011;4328;48.622;9.230;2022-08-21T02:15:26;3.80;;;1.90;;
8580;SDS011;4328;48.622;9.230;2022-08-21T02:17:55;2.40;;;1.90;;
8580;SDS011;4328;48.622;9.230;2022-08-21T02:20:25;2.50;;;2.10;;
8580;SDS011;4328;48.622;9.230;2022-08-21T02:22:53;4.80;;;2.00;;
8580;SDS011;4328;48.622;9.230;2022-08-21T02:25:20;3.47;;;2.00;;
8580;SDS011;4328;48.622;9.230;2022-08-21T02:27:48;1.87;;;1.70;;
8580;SDS011;4328;48.622;9.230;2022-08-21T02:30:18;1.90;;;1.70;;
8580;SDS011;4328;48.622;9.230;2022-08-21T02:32:46;1.80;;;1.70;;
8580;SDS011;4328;48.622;9.230;2022-08-21T02:35:13;1.83;;;1.70;;
8580;SDS011;4328;48.622;9.230;2022-08-21T02:37:43;2.00;;;1.80;;
8580;SDS011;4328;48.622;9.230;2022-08-21T02:40:12;2.43;;;2.23;;
8580;SDS011;4328;48.622;9.230;2022-08-21T02:42:40;3.93;;;1.80;;
8580;SDS011;4328;48.622;9.230;2022-08-21T02:45:07;1.90;;;1.70;;
8580;SDS011;4328;48.622;9.230;2022-08-21T02:47:35;1.73;;;1.63;;
8580;SDS011;4328;48.622;9.230;2022-08-21T02:50:02;1.80;;;1.70;;
8580;SDS011;4328;48.622;9.230;2022-08-21T02:52:30;1.70;;;1.60;;
8580;SDS011;4328;48.622;9.230;2022-08-21T02:54:57;4.70;;;2.20;;
8580;SDS011;4328;48.622;9.230;2022-08-21T02:57:23;2.07;;;1.70;;
8580;SDS011;4328;48.622;9.230;2022-08-21T02:59:50;1.80;;;1.70;;
8580;SDS011;4328;48.622;9.230;2022-08-21T03:02:17;2.33;;;1.80;;
8580;SDS011;4328;48.622;9.230;2022-08-21T03:04:45;3.10;;;1.87;;
8580;SDS011;4328;48.622;9.230;2022-08-21T03:07:11;3.23;;;1.80;;
8580;SDS011;4328;48.622;9.230;2022-08-21T03:09:38;3.13;;;2.03;;
8580;SDS011;4328;48.622;9.230;2022-08-21T03:12:05;3.63;;;1.70;;
8580;SDS011;4328;48.622;9.230;2022-08-21T03:14:32;2.00;;;1.80;;
8580;SDS011;4328;48.622;9.230;2022-08-21T03:16:58;1.87;;;1.73;;
8580;SDS011;4328;48.622;9.230;2022-08-21T03:19:25;2.67;;;1.83;;
8580;SDS011;4328;48.622;9.230;2022-08-21T03:21:53;1.90;;;1.80;;
8580;SDS011;4328;48.622;9.230;2022-08-21T03:24:20;1.97;;;1.80;;
8580;SDS011;4328;48.622;9.230;2022-08-21T03:26:46;5.23;;;1.83;;
8580;SDS011;4328;48.622;9.230;2022-08-21T03:29:13;3.00;;;2.03;;
8580;SDS011;4328;48.622;9.230;2022-08-21T03:31:39;2.67;;;1.90;;
8580;SDS011;4328;48.622;9.230;2022-08-21T03:34:06;2.33;;;1.90;;
8580;SDS011;4328;48.622;9.230;2022-08-21T03:36:33;2.00;;;1.73;;
8580;SDS011;4328;48.622;9.230;2022-08-21T03:39:01;4.63;;;1.87;;
8580;SDS011;4328;48.622;9.230;2022-08-21T03:41:29;2.80;;;1.73;;
8580;SDS011;4328;48.622;9.230;2022-08-21T03:43:55;3.57;;;1.97;;
8580;SDS011;4328;48.622;9.230;2022-08-21T03:46:22;2.57;;;1.77;;
8580;SDS011;4328;48.622;9.230;2022-08-21T03:48:48;2.03;;;1.80;;
8580;SDS011;4328;48.622;9.230;2022-08-21T03:51:16;2.10;;;1.70;;
8580;SDS011;4328;48.622;9.230;2022-08-21T03:53:43;1.87;;;1.70;;
8580;SDS011;4328;48.622;9.230;2022-08-21T03:56:11;3.03;;;1.80;;
8580;SDS011;4328;48.622;9.230;2022-08-21T03:58:38;3.03;;;1.80;;
8580;SDS011;4328;48.622;9.230;2022-08-21T04:01:05;1.90;;;1.80;;
8580;SDS011;4328;48.622;9.230;2022-08-21T04:03:34;2.10;;;1.97;;
8580;SDS011;4328;48.622;9.230;2022-08-21T04:06:02;4.03;;;1.70;;
8580;SDS011;4328;48.622;9.230;2022-08-21T04:08:29;1.97;;;1.87;;
8580;SDS011;4328;48.622;9.230;2022-08-21T04:10:57;3.27;;;1.60;;
8580;SDS011;4328;48.622;9.230;2022-08-21T04:13:26;1.97;;;1.80;;
8580;SDS011;4328;48.622;9.230;2022-08-21T04:15:53;2.63;;;2.00;;
8580;SDS011;4328;48.622;9.230;2022-08-21T04:18:20;1.80;;;1.70;;
8580;SDS011;4328;48.622;9.230;2022-08-21T04:20:48;1.70;;;1.60;;
8580;SDS011;4328;48.622;9.230;2022-08-21T04:23:18;1.90;;;1.80;;
8580;SDS011;4328;48.622;9.230;2022-08-21T04:25:45;3.80;;;1.60;;
8580;SDS011;4328;48.622;9.230;2022-08-21T04:28:12;2.00;;;1.90;;
8580;SDS011;4328;48.622;9.230;2022-08-21T04:30:40;2.20;;;1.70;;
8580;SDS011;4328;48.622;9.230;2022-08-21T04:33:07;3.70;;;1.90;;
8580;SDS011;4328;48.622;9.230;2022-08-21T04:35:34;2.10;;;1.70;;
8580;SDS011;4328;48.622;9.230;2022-08-21T04:38:00;1.80;;;1.67;;
8580;SDS011;4328;48.622;9.230;2022-08-21T04:40:27;1.90;;;1.80;;
8580;SDS011;4328;48.622;9.230;2022-08-21T04:42:55;2.00;;;1.90;;
8580;SDS011;4328;48.622;9.230;2022-08-21T04:45:25;1.80;;;1.70;;
8580;SDS011;4328;48.622;9.230;2022-08-21T04:47:55;2.50;;;1.80;;
8580;SDS011;4328;48.622;9.230;2022-08-21T04:50:24;1.90;;;1.80;;
8580;SDS011;4328;48.622;9.230;2022-08-21T04:52:53;2.13;;;1.80;;
8580;SDS011;4328;48.622;9.230;2022-08-21T04:55:21;2.00;;;1.90;;
8580;SDS011;4328;48.622;9.230;2022-08-21T04:57:52;2.00;;;1.80;;
8580;SDS011;4328;48.622;9.230;2022-08-21T05:00:19;1.97;;;1.87;;
8580;SDS011;4328;48.622;9.230;2022-08-21T05:02:49;2.60;;;1.83;;
8580;SDS011;4328;48.622;9.230;2022-08-21T05:05:20;3.70;;;1.97;;
8580;SDS011;4328;48.622;9.230;2022-08-21T05:07:47;1.93;;;1.80;;
8580;SDS011;4328;48.622;9.230;2022-08-21T05:10:15;2.53;;;1.80;;
8580;SDS011;4328;48.622;9.230;2022-08-21T05:12:42;2.00;;;1.80;;
8580;SDS011;4328;48.622;9.230;2022-08-21T05:15:10;2.13;;;1.83;;
8580;SDS011;4328;48.622;9.230;2022-08-21T05:17:37;2.03;;;1.90;;
8580;SDS011;4328;48.622;9.230;2022-08-21T05:20:04;2.17;;;1.97;;
8580;SDS011;4328;48.622;9.230;2022-08-21T05:22:33;1.83;;;1.73;;
8580;SDS011;4328;48.622;9.230;2022-08-21T05:25:00;1.83;;;1.73;;
8580;SDS011;4328;48.622;9.230;2022-08-21T05:27:26;2.37;;;1.83;;
8580;SDS011;4328;48.622;9.230;2022-08-21T05:29:54;2.10;;;1.90;;
8580;SDS011;4328;48.622;9.230;2022-08-21T05:32:21;6.50;;;2.40;;
8580;SDS011;4328;48.622;9.230;2022-08-21T05:34:49;2.03;;;1.80;;
8580;SDS011;4328;48.622;9.230;2022-08-21T05:37:15;3.43;;;2.00;;
8580;SDS011;4328;48.622;9.230;2022-08-21T05:39:44;2.73;;;2.20;;
8580;SDS011;4328;48.622;9.230;2022-08-21T05:42:10;2.37;;;2.17;;
8580;SDS011;4328;48.622;9.230;2022-08-21T05:44:37;2.17;;;2.03;;
8580;SDS011;4328;48.622;9.230;2022-08-21T05:47:04;2.10;;;2.00;;
8580;SDS011;4328;48.622;9.230;2022-08-21T05:49:32;2.60;;;2.00;;
8580;SDS011;4328;48.622;9.230;2022-08-21T05:51:59;2.77;;;2.57;;
8580;SDS011;4328;48.622;9.230;2022-08-21T05:54:25;2.90;;;2.20;;
8580;SDS011;4328;48.622;9.230;2022-08-21T05:56:54;2.33;;;2.07;;
8580;SDS011;4328;48.622;9.230;2022-08-21T05:59:21;3.23;;;2.33;;
8580;SDS011;4328;48.622;9.230;2022-08-21T06:01:48;3.03;;;2.33;;
8580;SDS011;4328;48.622;9.230;2022-08-21T06:04:17;2.80;;;2.20;;
8580;SDS011;4328;48.622;9.230;2022-08-21T06:06:44;7.80;;;2.40;;
8580;SDS011;4328;48.622;9.230;2022-08-21T06:09:11;3.00;;;2.17;;
8580;SDS011;4328;48.622;9.230;2022-08-21T06:11:38;2.40;;;2.20;;
8580;SDS011;4328;48.622;9.230;2022-08-21T06:14:06;2.30;;;2.10;;
8580;SDS011;4328;48.622;9.230;2022-08-21T06:16:33;2.40;;;2.30;;
8580;SDS011;4328;48.622;9.230;2022-08-21T06:19:00;2.87;;;2.57;;
8580;SDS011;4328;48.622;9.230;2022-08-21T06:21:26;3.87;;;2.40;;
8580;SDS011;4328;48.622;9.230;2022-08-21T06:23:53;2.30;;;2.20;;
8580;SDS011;4328;48.622;9.230;2022-08-21T06:26:20;2.90;;;2.43;;
8580;SDS011;4328;48.622;9.230;2022-08-21T06:28:47;2.33;;;2.20;;
8580;SDS011;4328;48.622;9.230;2022-08-21T06:31:16;3.50;;;2.30;;
8580;SDS011;4328;48.622;9.230;2022-08-21T06:33:45;2.80;;;2.47;;
8580;SDS011;4328;48.622;9.230;2022-08-21T06:36:12;2.30;;;2.10;;
8580;SDS011;4328;48.622;9.230;2022-08-21T06:38:39;2.37;;;2.17;;
8580;SDS011;4328;48.622;9.230;2022-08-21T06:41:06;2.40;;;2.20;;
8580;SDS011;4328;48.622;9.230;2022-08-21T06:43:33;2.37;;;2.10;;
8580;SDS011;4328;48.622;9.230;2022-08-21T06:46:00;2.57;;;2.20;;
8580;SDS011;4328;48.622;9.230;2022-08-21T06:48:28;2.47;;;2.20;;
8580;SDS011;4328;48.622;9.230;2022-08-21T06:50:57;2.53;;;2.00;;
8580;SDS011;4328;48.622;9.230;2022-08-21T06:53:24;2.73;;;2.20;;
8580;SDS011;4328;48.622;9.230;2022-08-21T06:55:51;2.10;;;2.00;;
8580;SDS011;4328;48.622;9.230;2022-08-21T06:58:17;2.20;;;2.10;;
8580;SDS011;4328;48.622;9.230;2022-08-21T07:00:45;3.37;;;2.10;;
8580;SDS011;4328;48.622;9.230;2022-08-21T07:03:17;2.93;;;2.00;;
8580;SDS011;4328;48.622;9.230;2022-08-21T07:05:46;4.73;;;2.00;;
8580;SDS011;4328;48.622;9.230;2022-08-21T07:08:13;2.67;;;1.93;;
8580;SDS011;4328;48.622;9.230;2022-08-21T07:10:40;3.63;;;2.27;;
8580;SDS011;4328;48.622;9.230;2022-08-21T07:13:07;2.60;;;2.13;;
8580;SDS011;4328;48.622;9.230;2022-08-21T07:15:33;2.30;;;1.80;;
8580;SDS011;4328;48.622;9.230;2022-08-21T07:18:00;2.30;;;1.80;;
8580;SDS011;4328;48.622;9.230;2022-08-21T07:20:27;2.67;;;2.00;;
8580;SDS011;4328;48.622;9.230;2022-08-21T07:22:56;1.83;;;1.73;;
8580;SDS011;4328;48.622;9.230;2022-08-21T07:25:26;3.17;;;1.70;;
8580;SDS011;4328;48.622;9.230;2022-08-21T07:27:53;2.10;;;1.93;;
8580;SDS011;4328;48.622;9.230;2022-08-21T07:30:20;2.27;;;1.90;;
8580;SDS011;4328;48.622;9.230;2022-08-21T07:32:47;2.37;;;2.00;;
8580;SDS011;4328;48.622;9.230;2022-08-21T07:35:15;3.27;;;1.97;;
8580;SDS011;4328;48.622;9.230;2022-08-21T07:37:41;2.87;;;2.67;;
8580;SDS011;4328;48.622;9.230;2022-08-21T07:40:10;2.83;;;1.90;;
8580;SDS011;4328;48.622;9.230;2022-08-21T07:42:39;2.50;;;1.90;;
8580;SDS011;4328;48.622;9.230;2022-08-21T07:45:06;2.43;;;1.90;;
8580;SDS011;4328;48.622;9.230;2022-08-21T07:47:34;2.47;;;2.27;;
8580;SDS011;4328;48.622;9.230;2022-08-21T07:50:01;2.70;;;2.00;;
8580;SDS011;4328;48.622;9.230;2022-08-21T07:52:29;2.80;;;2.07;;
8580;SDS011;4328;48.622;9.230;2022-08-21T07:54:56;3.97;;;2.20;;
8580;SDS011;4328;48.622;9.230;2022-08-21T07:57:25;1.90;;;1.80;;
8580;SDS011;4328;48.622;9.230;2022-08-21T07:59:52;2.83;;;2.37;;
8580;SDS011;4328;48.622;9.230;2022-08-21T08:02:22;3.70;;;2.60;;
8580;SDS011;4328;48.622;9.230;2022-08-21T08:04:50;2.90;;;2.50;;
8580;SDS011;4328;48.622;9.230;2022-08-21T08:07:17;2.93;;;2.40;;
8580;SDS011;4328;48.622;9.230;2022-08-21T08:09:43;3.17;;;2.57;;
8580;SDS011;4328;48.622;9.230;2022-08-21T08:12:10;4.20;;;2.50;;
8580;SDS011;4328;48.622;9.230;2022-08-21T08:14:38;4.23;;;2.53;;
8580;SDS011;4328;48.622;9.230;2022-08-21T08:17:05;2.50;;;2.30;;
8580;SDS011;4328;48.622;9.230;2022-08-21T08:19:31;4.17;;;2.30;;
8580;SDS011;4328;48.622;9.230;2022-08-21T08:21:58;4.23;;;2.30;;
8580;SDS011;4328;48.622;9.230;2022-08-21T08:24:25;4.63;;;2.80;;
8580;SDS011;4328;48.622;9.230;2022-08-21T08:26:51;3.03;;;2.40;;
8580;SDS011;4328;48.622;9.230;2022-08-21T08:29:19;4.10;;;2.73;;
8580;SDS011;4328;48.622;9.230;2022-08-21T08:31:47;3.00;;;2.50;;
8580;SDS011;4328;48.622;9.230;2022-08-21T08:34:13;3.33;;;2.23;;
8580;SDS011;4328;48.622;9.230;2022-08-21T08:36:40;4.20;;;2.47;;
8580;SDS011;4328;48.622;9.230;2022-08-21T08:39:06;4.90;;;2.40;;
8580;SDS011;4328;48.622;9.230;2022-08-21T08:41:33;3.77;;;2.00;;
8580;SDS011;4328;48.622;9.230;2022-08-21T08:44:02;2.20;;;1.90;;
8580;SDS011;4328;48.622;9.230;2022-08-21T08:46:34;3.10;;;2.08;;
8580;SDS011;4328;48.622;9.230;2022-08-21T08:49:08;3.30;;;2.10;;
8580;SDS011;4328;48.622;9.230;2022-08-21T08:51:45;2.30;;;2.10;;
8580;SDS011;4328;48.622;9.230;2022-08-21T08:54:17;2.75;;;1.90;;
8580;SDS011;4328;48.622;9.230;2022-08-21T08:56:49;3.05;;;1.92;;
8580;SDS011;4328;48.622;9.230;2022-08-21T08:59:18;3.80;;;2.25;;
8580;SDS011;4328;48.622;9.230;2022-08-21T09:01:48;3.58;;;2.20;;
8580;SDS011;4328;48.622;9.230;2022-08-21T09:04:18;3.42;;;1.90;;
8580;SDS011;4328;48.622;9.230;2022-08-21T09:06:54;2.65;;;2.22;;
8580;SDS011;4328;48.622;9.230;2022-08-21T09:09:36;3.00;;;2.30;;
8580;SDS011;4328;48.622;9.230;2022-08-21T09:12:15;2.67;;;2.00;;
8580;SDS011;4328;48.622;9.230;2022-08-21T09:14:50;3.20;;;2.13;;
8580;SDS011;4328;48.622;9.230;2022-08-21T09:17:30;3.42;;;2.25;;
8580;SDS011;4328;48.622;9.230;2022-08-21T09:20:12;2.50;;;2.30;;
8580;SDS011;4328;48.622;9.230;2022-08-21T09:22:48;2.40;;;2.10;;
8580;SDS011;4328;48.622;9.230;2022-08-21T09:25:24;5.03;;;2.42;;
8580;SDS011;4328;48.622;9.230;2022-08-21T09:27:52;3.45;;;2.40;;
8580;SDS011;4328;48.622;9.230;2022-08-21T09:30:23;4.15;;;2.60;;
8580;SDS011;4328;48.622;9.230;2022-08-21T09:32:52;3.13;;;2.53;;
8580;SDS011;4328;48.622;9.230;2022-08-21T09:35:21;5.90;;;2.67;;
8580;SDS011;4328;48.622;9.230;2022-08-21T09:37:51;3.92;;;2.70;;
8580;SDS011;4328;48.622;9.230;2022-08-21T09:40:28;3.55;;;2.45;;
8580;SDS011;4328;48.622;9.230;2022-08-21T09:42:59;3.83;;;2.35;;
8580;SDS011;4328;48.622;9.230;2022-08-21T09:45:27;4.13;;;2.80;;
8580;SDS011;4328;48.622;9.230;2022-08-21T09:47:54;3.67;;;2.60;;
8580;SDS011;4328;48.622;9.230;2022-08-21T09:50:24;4.53;;;2.50;;
8580;SDS011;4328;48.622;9.230;2022-08-21T09:52:54;3.47;;;2.40;;
8580;SDS011;4328;48.622;9.230;2022-08-21T09:55:27;4.55;;;2.40;;
8580;SDS011;4328;48.622;9.230;2022-08-21T09:58:15;4.15;;;2.80;;
8580;SDS011;4328;48.622;9.230;2022-08-21T10:00:43;3.78;;;2.75;;
8580;SDS011;4328;48.622;9.230;2022-08-21T10:03:12;4.10;;;2.60;;
8580;SDS011;4328;48.622;9.230;2022-08-21T10:05:51;4.93;;;2.80;;
8580;SDS011;4328;48.622;9.230;2022-08-21T10:08:22;5.22;;;2.85;;
8580;SDS011;4328;48.622;9.230;2022-08-21T10:10:51;4.90;;;2.55;;
8580;SDS011;4328;48.622;9.230;2022-08-21T10:13:22;5.80;;;2.78;;
8580;SDS011;4328;48.622;9.230;2022-08-21T10:16:02;4.00;;;2.80;;
8580;SDS011;4328;48.622;9.230;2022-08-21T10:18:38;2.95;;;2.50;;
8580;SDS011;4328;48.622;9.230;2022-08-21T10:21:10;5.53;;;2.75;;
8580;SDS011;4328;48.622;9.230;2022-08-21T10:23:51;5.30;;;2.58;;
8580;SDS011;4328;48.622;9.230;2022-08-21T10:26:30;3.83;;;2.55;;
8580;SDS011;4328;48.622;9.230;2022-08-21T10:29:09;3.78;;;2.42;;
8580;SDS011;4328;48.622;9.230;2022-08-21T10:31:43;3.78;;;2.65;;
8580;SDS011;4328;48.622;9.230;2022-08-21T10:34:21;4.82;;;2.35;;
8580;SDS011;4328;48.622;9.230;2022-08-21T10:37:05;6.47;;;2.55;;
8580;SDS011;4328;48.622;9.230;2022-08-21T10:39:43;3.83;;;2.65;;
8580;SDS011;4328;48.622;9.230;2022-08-21T10:45:06;2.53;;;2.00;;
8580;SDS011;4328;48.622;9.230;2022-08-21T10:47:39;2.83;;;2.55;;
8580;SDS011;4328;48.622;9.230;2022-08-21T10:50:12;3.53;;;2.28;;
8580;SDS011;4328;48.622;9.230;2022-08-21T10:52:55;3.83;;;2.30;;
8580;SDS011;4328;48.622;9.230;2022-08-21T10:55:32;2.40;;;2.20;;
8580;SDS011;4328;48.622;9.230;2022-08-21T10:58:02;3.55;;;2.28;;
8580;SDS011;4328;48.622;9.230;2022-08-21T11:00:35;3.15;;;2.35;;
8580;SDS011;4328;48.622;9.230;2022-08-21T11:03:07;3.75;;;2.70;;
8580;SDS011;4328;48.622;9.230;2022-08-21T11:05:40;3.83;;;2.17;;
8580;SDS011;4328;48.622;9.230;2022-08-21T11:08:15;3.08;;;2.35;;
8580;SDS011;4328;48.622;9.230;2022-08-21T11:10:46;3.50;;;2.17;;
8580;SDS011;4328;48.622;9.230;2022-08-21T11:13:17;4.70;;;2.50;;
8580;SDS011;4328;48.622;9.230;2022-08-21T11:15:52;4.43;;;2.47;;
8580;SDS011;4328;48.622;9.230;2022-08-21T11:18:24;4.35;;;2.33;;
8580;SDS011;4328;48.622;9.230;2022-08-21T11:20:57;3.20;;;2.72;;
8580;SDS011;4328;48.622;9.230;2022-08-21T11:23:31;3.90;;;2.50;;
8580;SDS011;4328;48.622;9.230;2022-08-21T11:26:05;4.40;;;2.20;;
8580;SDS011;4328;48.622;9.230;2022-08-21T11:28:40;4.07;;;2.60;;
8580;SDS011;4328;48.622;9.230;2022-08-21T11:31:15;5.95;;;2.50;;
8580;SDS011;4328;48.622;9.230;2022-08-21T11:33:54;3.72;;;2.42;;
8580;SDS011;4328;48.622;9.230;2022-08-21T11:36:33;3.20;;;2.28;;
8580;SDS011;4328;48.622;9.230;2022-08-21T11:39:11;3.83;;;2.13;;
8580;SDS011;4328;48.622;9.230;2022-08-21T11:41:46;5.30;;;2.17;;
8580;SDS011;4328;48.622;9.230;2022-08-21T11:44:22;2.25;;;2.05;;
8580;SDS011;4328;48.622;9.230;2022-08-21T11:47:01;2.60;;;2.30;;
8580;SDS011;4328;48.622;9.230;2022-08-21T11:49:39;4.05;;;1.95;;
8580;SDS011;4328;48.622;9.230;2022-08-21T11:52:14;3.93;;;2.40;;
8580;SDS011;4328;48.622;9.230;2022-08-21T11:54:47;3.03;;;2.10;;
8580;SDS011;4328;48.622;9.230;2022-08-21T11:57:20;2.20;;;2.00;;
8580;SDS011;4328;48.622;9.230;2022-08-21T11:59:49;4.35;;;2.33;;
8580;SDS011;4328;48.622;9.230;2022-08-21T12:02:23;2.33;;;2.10;;
8580;SDS011;4328;48.622;9.230;2022-08-21T12:04:54;2.47;;;2.27;;
8580;SDS011;4328;48.622;9.230;2022-08-21T12:07:30;3.37;;;2.30;;
8580;SDS011;4328;48.622;9.230;2022-08-21T12:10:00;2.70;;;2.30;;
8580;SDS011;4328;48.622;9.230;2022-08-21T12:12:30;2.70;;;2.05;;
8580;SDS011;4328;48.622;9.230;2022-08-21T12:15:07;2.33;;;2.13;;
8580;SDS011;4328;48.622;9.230;2022-08-21T12:17:51;2.53;;;2.10;;
8580;SDS011;4328;48.622;9.230;2022-08-21T12:20:23;2.43;;;1.93;;
8580;SDS011;4328;48.622;9.230;2022-08-21T12:23:03;2.20;;;2.00;;
8580;SDS011;4328;48.622;9.230;2022-08-21T12:25:37;2.78;;;2.03;;
8580;SDS011;4328;48.622;9.230;2022-08-21T12:28:07;3.35;;;2.15;;
8580;SDS011;4328;48.622;9.230;2022-08-21T12:30:36;3.80;;;2.00;;
8580;SDS011;4328;48.622;9.230;2022-08-21T12:33:06;3.17;;;1.95;;
8580;SDS011;4328;48.622;9.230;2022-08-21T12:35:46;1.98;;;1.80;;
8580;SDS011;4328;48.622;9.230;2022-08-21T12:38:17;2.15;;;1.80;;
8580;SDS011;4328;48.622;9.230;2022-08-21T12:40:49;3.13;;;1.95;;
8580;SDS011;4328;48.622;9.230;2022-08-21T12:43:20;2.63;;;2.10;;
8580;SDS011;4328;48.622;9.230;2022-08-21T12:45:51;3.92;;;2.10;;
8580;SDS011;4328;48.622;9.230;2022-08-21T12:48:18;3.00;;;2.20;;
8580;SDS011;4328;48.622;9.230;2022-08-21T12:50:52;5.00;;;2.05;;
8580;SDS011;4328;48.622;9.230;2022-08-21T12:53:24;4.13;;;2.28;;
8580;SDS011;4328;48.622;9.230;2022-08-21T12:55:57;1.70;;;1.60;;
8580;SDS011;4328;48.622;9.230;2022-08-21T12:58:29;2.88;;;1.92;;
8580;SDS011;4328;48.622;9.230;2022-08-21T13:00:59;3.05;;;2.00;;
8580;SDS011;4328;48.622;9.230;2022-08-21T13:03:35;3.33;;;2.03;;
8580;SDS011;4328;48.622;9.230;2022-08-21T13:06:04;2.65;;;1.60;;
8580;SDS011;4328;48.622;9.230;2022-08-21T13:08:32;2.58;;;2.10;;
8580;SDS011;4328;48.622;9.230;2022-08-21T13:11:03;2.05;;;1.85;;
8580;SDS011;4328;48.622;9.230;2022-08-21T13:13:32;2.50;;;1.75;;
8580;SDS011;4328;48.622;9.230;2022-08-21T13:15:59;2.70;;;1.98;;
8580;SDS011;4328;48.622;9.230;2022-08-21T13:18:30;3.60;;;1.90;;
8580;SDS011;4328;48.622;9.230;2022-08-21T13:21:05;2.65;;;1.80;;
8580;SDS011;4328;48.622;9.230;2022-08-21T13:23:35;1.75;;;1.60;;
8580;SDS011;4328;48.622;9.230;2022-08-21T13:26:12;2.13;;;1.90;;
8580;SDS011;4328;48.622;9.230;2022-08-21T13:28:39;3.40;;;2.00;;
8580;SDS011;4328;48.622;9.230;2022-08-21T13:31:07;2.08;;;1.80;;
8580;SDS011;4328;48.622;9.230;2022-08-21T13:33:36;2.10;;;1.90;;
8580;SDS011;4328;48.622;9.230;2022-08-21T13:36:07;2.38;;;1.90;;
8580;SDS011;4328;48.622;9.230;2022-08-21T13:38:37;6.05;;;2.03;;
8580;SDS011;4328;48.622;9.230;2022-08-21T13:41:09;3.40;;;2.03;;
8580;SDS011;4328;48.622;9.230;2022-08-21T13:43:46;4.85;;;1.92;;
8580;SDS011;4328;48.622;9.230;2022-08-21T13:46:15;3.05;;;1.80;;
8580;SDS011;4328;48.622;9.230;2022-08-21T13:48:53;2.67;;;1.77;;
8580;SDS011;4328;48.622;9.230;2022-08-21T13:51:21;2.83;;;2.00;;
8580;SDS011;4328;48.622;9.230;2022-08-21T13:53:49;3.40;;;2.10;;
8580;SDS011;4328;48.622;9.230;2022-08-21T13:56:21;3.25;;;1.80;;
8580;SDS011;4328;48.622;9.230;2022-08-21T13:58:51;3.78;;;2.40;;
8580;SDS011;4328;48.622;9.230;2022-08-21T14:01:19;2.07;;;1.93;;
8580;SDS011;4328;48.622;9.230;2022-08-21T14:03:49;3.15;;;2.38;;
8580;SDS011;4328;48.622;9.230;2022-08-21T14:06:19;2.30;;;1.92;;
8580;SDS011;4328;48.622;9.230;2022-08-21T14:08:50;2.30;;;2.10;;
8580;SDS011;4328;48.622;9.230;2022-08-21T14:11:19;2.08;;;1.95;;
8580;SDS011;4328;48.622;9.230;2022-08-21T14:13:48;6.60;;;2.08;;
8580;SDS011;4328;48.622;9.230;2022-08-21T14:16:22;2.00;;;1.90;;
8580;SDS011;4328;48.622;9.230;2022-08-21T14:18:53;2.03;;;1.83;;
8580;SDS011;4328;48.622;9.230;2022-08-21T14:21:34;2.53;;;1.80;;
8580;SDS011;4328;48.622;9.230;2022-08-21T14:24:05;2.42;;;2.15;;
8580;SDS011;4328;48.622;9.230;2022-08-21T14:26:35;3.00;;;1.90;;
8580;SDS011;4328;48.622;9.230;2022-08-21T14:29:07;1.80;;;1.67;;
8580;SDS011;4328;48.622;9.230;2022-08-21T14:31:35;2.33;;;1.90;;
8580;SDS011;4328;48.622;9.230;2022-08-21T14:34:01;5.18;;;2.05;;
8580;SDS011;4328;48.622;9.230;2022-08-21T14:36:28;2.17;;;1.98;;
8580;SDS011;4328;48.622;9.230;2022-08-21T14:38:55;2.50;;;1.90;;
8580;SDS011;4328;48.622;9.230;2022-08-21T14:41:22;3.13;;;2.10;;
8580;SDS011;4328;48.622;9.230;2022-08-21T14:43:52;3.08;;;1.95;;
8580;SDS011;4328;48.622;9.230;2022-08-21T14:46:22;2.85;;;2.33;;
8580;SDS011;4328;48.622;9.230;2022-08-21T14:48:51;3.00;;;2.33;;
8580;SDS011;4328;48.622;9.230;2022-08-21T14:51:17;2.30;;;2.10;;
8580;SDS011;4328;48.622;9.230;2022-08-21T14:53:44;4.97;;;2.00;;
8580;SDS011;4328;48.622;9.230;2022-08-21T14:56:11;2.83;;;2.20;;
8580;SDS011;4328;48.622;9.230;2022-08-21T14:58:39;4.30;;;2.38;;
8580;SDS011;4328;48.622;9.230;2022-08-21T15:01:08;3.30;;;2.00;;
8580;SDS011;4328;48.622;9.230;2022-08-21T15:03:37;4.13;;;2.45;;
8580;SDS011;4328;48.622;9.230;2022-08-21T15:06:05;2.63;;;2.38;;
8580;SDS011;4328;48.622;9.230;2022-08-21T15:08:33;4.17;;;2.57;;
8580;SDS011;4328;48.622;9.230;2022-08-21T15:11:00;2.27;;;2.07;;
8580;SDS011;4328;48.622;9.230;2022-08-21T15:13:29;2.67;;;2.30;;
8580;SDS011;4328;48.622;9.230;2022-08-21T15:15:56;3.93;;;2.20;;
8580;SDS011;4328;48.622;9.230;2022-08-21T15:18:25;4.47;;;2.50;;
8580;SDS011;4328;48.622;9.230;2022-08-21T15:20:54;2.47;;;2.10;;
8580;SDS011;4328;48.622;9.230;2022-08-21T15:23:21;3.27;;;2.30;;
8580;SDS011;4328;48.622;9.230;2022-08-21T15:25:48;3.43;;;2.60;;
8580;SDS011;4328;48.622;9.230;2022-08-21T15:28:16;4.57;;;2.43;;
8580;SDS011;4328;48.622;9.230;2022-08-21T15:30:44;4.73;;;2.47;;
8580;SDS011;4328;48.622;9.230;2022-08-21T15:33:11;2.83;;;2.43;;